«
»


Катастрофа MD-11 FedEx в Токио (Видео)

Печальные новости из Токио. Грузовой MD-11F авиакомпании FedEx (бортовой номер N526FE) разбился при заходе на посадку в международном аэропорту Токио-Нарита. На момент катастрофы в аэропорту был сильный ветер. Оба пилота погибли.

Видео без комментариев…

Update (20:24 MSK):
METAR на момент катастрофы

222130Z 32026G40KT 9999 FEW020 12/M02 Q0999 WS R34L NOSIG RMK
1CU020 A2952 P/RR.

Результаты расследования похожей катастрофы MD-11 FedEx в Ньюарке в 1997 году (pdf)

Похожие записи

комментария 3 »

MichaelMow:

wh0cd449117 [url=http://baclofen24.us.org/]baclofen[/url] [url=http://buyviagraonline24.us.org/]buy viagra online[/url]

Июнь 20th, 2017 | 12:58